createdAt,value
2018-09-13T00:00:45.295Z,938.13
2018-09-13T00:01:45.392Z,938.13
2018-09-13T00:02:45.307Z,938.09
2018-09-13T00:03:45.330Z,938.05
2018-09-13T00:04:45.342Z,938.05
2018-09-13T00:05:45.350Z,938.06
2018-09-13T00:06:45.465Z,938.06
2018-09-13T00:07:45.371Z,938.09
2018-09-13T00:08:45.381Z,938.10
2018-09-13T00:09:45.428Z,938.11
2018-09-13T00:10:45.421Z,938.11
2018-09-13T00:11:45.530Z,938.11
2018-09-13T00:12:45.442Z,938.08
2018-09-13T00:13:45.444Z,938.07
2018-09-13T00:14:45.508Z,938.08
2018-09-13T00:15:45.524Z,938.06
2018-09-13T00:16:45.655Z,938.03
2018-09-13T00:17:45.560Z,938.08
2018-09-13T00:18:45.558Z,938.07
2018-09-13T00:19:45.579Z,938.07
2018-09-13T00:20:45.581Z,938.08
2018-09-13T00:21:45.696Z,938.08
2018-09-13T00:22:45.628Z,938.09
2018-09-13T00:23:45.640Z,938.08
2018-09-13T00:24:45.653Z,938.12
2018-09-13T00:25:45.648Z,938.06
2018-09-13T00:26:45.660Z,938.09
2018-09-13T00:27:45.788Z,938.10
2018-09-13T00:28:45.699Z,938.11
2018-09-13T00:29:45.713Z,938.07
2018-09-13T00:30:45.729Z,938.05
2018-09-13T00:31:45.739Z,938.03
2018-09-13T00:32:45.854Z,938.06
2018-09-13T00:33:45.767Z,938.06
2018-09-13T00:34:45.780Z,938.04
2018-09-13T00:35:45.794Z,938.04
2018-09-13T00:36:45.793Z,938.03
2018-09-13T00:37:45.914Z,938.08
2018-09-13T00:38:45.826Z,938.12
2018-09-13T00:39:45.828Z,938.05
2018-09-13T00:40:45.850Z,938.05
2018-09-13T00:41:45.848Z,938.08
2018-09-13T00:42:45.968Z,938.08
2018-09-13T00:43:45.890Z,938.07
2018-09-13T00:44:45.891Z,938.08
2018-09-13T00:45:45.900Z,938.06
2018-09-13T00:46:45.913Z,938.03
2018-09-13T00:47:46.028Z,938.10
2018-09-13T00:48:45.949Z,938.02
2018-09-13T00:49:45.966Z,938.08
2018-09-13T00:50:45.961Z,938.03
2018-09-13T00:51:45.982Z,938.02
2018-09-13T00:52:46.136Z,938.04
2018-09-13T00:53:46.014Z,938.01
2018-09-13T00:54:46.021Z,938.03
2018-09-13T00:55:46.037Z,938.01
2018-09-13T00:56:46.038Z,938.00
2018-09-13T00:57:46.164Z,938.00
2018-09-13T00:58:46.067Z,937.98
2018-09-13T00:59:46.092Z,937.96
2018-09-13T01:00:46.105Z,938.00
2018-09-13T01:01:46.104Z,937.98
2018-09-13T01:02:46.265Z,938.00
2018-09-13T01:03:46.139Z,937.98
2018-09-13T01:04:46.153Z,937.98
2018-09-13T01:05:46.168Z,937.98
2018-09-13T01:06:46.172Z,937.97
2018-09-13T01:07:46.281Z,937.95
2018-09-13T01:08:46.192Z,937.94
2018-09-13T01:09:46.202Z,937.97
2018-09-13T01:10:46.214Z,937.95
2018-09-13T01:11:46.228Z,937.97
2018-09-13T01:12:46.354Z,937.95
2018-09-13T01:13:46.268Z,937.93
2018-09-13T01:14:46.273Z,937.95
2018-09-13T01:15:46.291Z,937.94
2018-09-13T01:16:46.291Z,937.96
2018-09-13T01:17:46.407Z,937.94
2018-09-13T01:18:46.319Z,937.96
2018-09-13T01:19:46.327Z,937.94
2018-09-13T01:20:46.337Z,937.99
2018-09-13T01:21:46.365Z,937.98
2018-09-13T01:22:46.465Z,937.97
2018-09-13T01:23:46.379Z,937.97
2018-09-13T01:24:46.389Z,937.93
2018-09-13T01:25:46.426Z,937.93
2018-09-13T01:26:46.428Z,937.92
2018-09-13T01:27:46.547Z,937.94
2018-09-13T01:28:46.452Z,937.89
2018-09-13T01:29:46.466Z,937.87
2018-09-13T01:30:46.465Z,937.88
2018-09-13T01:31:46.485Z,937.91
2018-09-13T01:32:46.603Z,937.87
2018-09-13T01:33:46.518Z,937.86
2018-09-13T01:34:46.518Z,937.89
2018-09-13T01:35:46.546Z,937.87
2018-09-13T01:36:46.559Z,937.84
2018-09-13T01:37:46.665Z,937.85
2018-09-13T01:38:46.569Z,937.84
2018-09-13T01:39:46.595Z,937.83
2018-09-13T01:40:46.607Z,937.82
2018-09-13T01:41:46.619Z,937.81
2018-09-13T01:42:46.634Z,937.79
2018-09-13T01:43:46.747Z,937.77
2018-09-13T01:44:46.646Z,937.74
2018-09-13T01:45:46.657Z,937.73
2018-09-13T01:46:46.682Z,937.74
2018-09-13T01:47:46.696Z,937.75
2018-09-13T01:48:46.795Z,937.73
2018-09-13T01:49:46.716Z,937.76
2018-09-13T01:50:46.733Z,937.71
2018-09-13T01:51:46.746Z,937.69
2018-09-13T01:52:46.747Z,937.72
2018-09-13T01:53:47.022Z,937.71
2018-09-13T01:54:46.785Z,937.73
2018-09-13T01:55:46.792Z,937.69
2018-09-13T01:56:46.803Z,937.74
2018-09-13T01:57:46.821Z,937.71
2018-09-13T01:58:46.920Z,937.71
2018-09-13T01:59:46.834Z,937.71
2018-09-13T02:00:46.850Z,937.77
2018-09-13T02:01:46.862Z,937.74
2018-09-13T02:02:46.883Z,937.69
2018-09-13T02:03:46.999Z,937.66
2018-09-13T02:04:46.909Z,937.65
2018-09-13T02:05:46.926Z,937.71
2018-09-13T02:06:46.924Z,937.62
2018-09-13T02:07:46.953Z,937.65
2018-09-13T02:08:47.110Z,937.63
2018-09-13T02:09:46.961Z,937.63
2018-09-13T02:10:46.972Z,937.64
2018-09-13T02:11:46.979Z,937.65
2018-09-13T02:12:47.007Z,937.65
2018-09-13T02:13:47.123Z,937.59
2018-09-13T02:14:47.035Z,937.64
2018-09-13T02:15:47.037Z,937.65
2018-09-13T02:16:47.052Z,937.65
2018-09-13T02:17:47.073Z,937.63
2018-09-13T02:18:47.189Z,937.63
2018-09-13T02:19:47.097Z,937.61
2018-09-13T02:20:47.099Z,937.61
2018-09-13T02:21:47.123Z,937.60
2018-09-13T02:22:47.123Z,937.61
2018-09-13T02:23:47.395Z,937.61
2018-09-13T02:24:47.163Z,937.62
2018-09-13T02:25:47.166Z,937.58
2018-09-13T02:26:47.171Z,937.56
2018-09-13T02:27:47.182Z,937.49
2018-09-13T02:28:47.459Z,937.54
2018-09-13T02:29:47.223Z,937.50
2018-09-13T02:30:47.224Z,937.52
2018-09-13T02:31:47.250Z,937.51
2018-09-13T02:32:47.252Z,937.52
2018-09-13T02:33:47.376Z,937.47
2018-09-13T02:34:47.271Z,937.48
2018-09-13T02:35:47.291Z,937.50
2018-09-13T02:36:47.299Z,937.52
2018-09-13T02:37:47.326Z,937.40
2018-09-13T02:38:47.446Z,937.45
2018-09-13T02:39:47.338Z,937.46
2018-09-13T02:40:47.357Z,937.47
2018-09-13T02:41:47.307Z,937.46
2018-09-13T02:42:47.332Z,937.44
2018-09-13T02:43:47.434Z,937.43
2018-09-13T02:44:47.344Z,937.42
2018-09-13T02:47:31.995Z,937.38
2018-09-13T02:48:31.993Z,937.39
2018-09-13T02:49:32.109Z,937.38
2018-09-13T02:50:32.035Z,937.34
2018-09-13T02:51:32.032Z,937.37
2018-09-13T02:52:32.074Z,937.34
2018-09-13T02:53:32.089Z,937.38
2018-09-13T02:54:32.201Z,937.37
2018-09-13T02:55:32.109Z,937.33
2018-09-13T02:56:32.122Z,937.34
2018-09-13T02:57:32.143Z,937.30
2018-09-13T02:58:32.148Z,937.27
2018-09-13T02:59:32.267Z,937.30
2018-09-13T03:00:32.163Z,937.27
2018-09-13T03:01:32.172Z,937.30
2018-09-13T03:02:32.192Z,937.26
2018-09-13T03:03:32.211Z,937.26
2018-09-13T03:04:32.326Z,937.32
2018-09-13T03:05:32.253Z,937.24
2018-09-13T03:06:32.239Z,937.28
2018-09-13T03:07:32.258Z,937.24
2018-09-13T03:08:32.262Z,937.26
2018-09-13T03:09:32.392Z,937.23
2018-09-13T03:10:32.300Z,937.25
2018-09-13T03:11:32.303Z,937.26
2018-09-13T03:12:32.314Z,937.25
2018-09-13T03:13:32.332Z,937.16
2018-09-13T03:14:32.445Z,937.19
2018-09-13T03:15:32.363Z,937.19
2018-09-13T03:16:32.371Z,937.12
2018-09-13T03:17:32.375Z,937.15
2018-09-13T03:18:32.388Z,937.08
2018-09-13T03:19:32.502Z,937.10
2018-09-13T03:20:32.430Z,937.06
2018-09-13T03:21:32.435Z,937.04
2018-09-13T03:22:32.438Z,936.98
2018-09-13T03:23:32.463Z,937.00
2018-09-13T03:27:32.606Z,936.94
2018-09-13T03:28:32.533Z,936.90
2018-09-13T03:29:32.526Z,936.96
2018-09-13T03:30:32.547Z,936.93
2018-09-13T03:31:32.496Z,936.89
2018-09-13T03:32:32.522Z,936.95
2018-09-13T03:33:32.787Z,936.87
2018-09-13T03:34:32.531Z,936.89
2018-09-13T03:35:32.555Z,936.89
2018-09-13T03:36:32.569Z,936.93
2018-09-13T03:37:32.577Z,936.90
2018-09-13T03:38:32.690Z,936.87
2018-09-13T03:39:32.601Z,936.89
2018-09-13T03:40:32.606Z,936.92
2018-09-13T03:41:32.630Z,936.92
2018-09-13T03:42:32.644Z,936.92
2018-09-13T03:43:32.753Z,936.88
2018-09-13T03:44:32.671Z,936.91
2018-09-13T03:45:32.679Z,936.94
2018-09-13T03:46:32.681Z,936.88
2018-09-13T03:47:32.703Z,936.89
2018-09-13T03:48:32.955Z,936.84
2018-09-13T03:49:32.716Z,936.88
2018-09-13T03:50:32.732Z,936.86
2018-09-13T03:51:32.748Z,936.87
2018-09-13T03:52:32.766Z,936.88
2018-09-13T03:53:32.868Z,936.87
2018-09-13T03:54:32.777Z,936.83
2018-09-13T03:55:32.804Z,936.85
2018-09-13T03:56:32.805Z,936.79
2018-09-13T03:57:32.810Z,936.73
2018-09-13T03:58:32.933Z,936.72
2018-09-13T03:59:32.846Z,936.70
2018-09-13T04:00:32.855Z,936.68
2018-09-13T04:01:32.876Z,936.68
2018-09-13T04:02:32.885Z,936.62
2018-09-13T04:03:32.985Z,936.61
2018-09-13T04:04:32.911Z,936.60
2018-09-13T04:05:32.913Z,936.58
2018-09-13T04:06:32.928Z,936.59
2018-09-13T04:07:32.955Z,936.55
2018-09-13T04:08:33.063Z,936.58
2018-09-13T04:09:32.978Z,936.58
2018-09-13T04:10:32.987Z,936.57
2018-09-13T04:11:32.999Z,936.55
2018-09-13T04:12:33.010Z,936.53
2018-09-13T04:13:33.115Z,936.56
2018-09-13T04:14:33.040Z,936.56
2018-09-13T04:15:33.037Z,936.54
2018-09-13T04:16:33.059Z,936.52
2018-09-13T04:17:33.060Z,936.59
2018-09-13T04:18:33.205Z,936.49
2018-09-13T04:19:33.102Z,936.54
2018-09-13T04:20:33.113Z,936.54
2018-09-13T04:21:33.117Z,936.52
2018-09-13T04:22:33.153Z,936.47
2018-09-13T04:23:33.291Z,936.51
2018-09-13T04:24:33.146Z,936.53
2018-09-13T04:25:33.165Z,936.47
2018-09-13T04:26:33.183Z,936.45
2018-09-13T04:27:33.195Z,936.46
2018-09-13T04:28:33.298Z,936.49
2018-09-13T04:29:33.215Z,936.43
2018-09-13T04:30:33.219Z,936.42
2018-09-13T04:31:33.240Z,936.34
2018-09-13T04:32:33.260Z,936.35
2018-09-13T04:33:33.369Z,936.35
2018-09-13T04:34:33.266Z,936.28
2018-09-13T04:35:33.390Z,936.32
2018-09-13T04:36:33.309Z,936.26
2018-09-13T04:37:33.318Z,936.24
2018-09-13T04:38:33.577Z,936.21
2018-09-13T04:39:33.341Z,936.21
2018-09-13T04:40:33.339Z,936.23
2018-09-13T04:41:33.563Z,936.20
2018-09-13T04:42:33.366Z,936.15
2018-09-13T04:43:33.576Z,936.12
2018-09-13T04:44:34.346Z,936.17
2018-09-13T04:45:33.428Z,936.11
2018-09-13T04:46:33.422Z,936.07
2018-09-13T04:47:33.422Z,936.13
2018-09-13T04:48:33.446Z,936.09
2018-09-13T04:49:33.460Z,936.07
2018-09-13T04:50:33.575Z,936.06
2018-09-13T04:51:33.470Z,936.07
2018-09-13T04:52:33.483Z,936.05
2018-09-13T04:53:33.497Z,936.06
2018-09-13T04:54:33.510Z,936.04
2018-09-13T04:55:33.519Z,936.03
2018-09-13T04:56:33.687Z,936.06
2018-09-13T04:57:33.544Z,935.98
2018-09-13T04:58:33.566Z,935.98
2018-09-13T04:59:33.581Z,935.98
2018-09-13T05:00:33.595Z,935.98
2018-09-13T05:01:33.707Z,935.91
2018-09-13T05:02:33.614Z,935.96
2018-09-13T05:03:33.630Z,935.93
2018-09-13T05:04:33.628Z,935.89
2018-09-13T05:05:33.647Z,935.88
2018-09-13T05:06:33.819Z,935.84
2018-09-13T05:07:33.665Z,935.85
2018-09-13T05:08:33.674Z,935.89
2018-09-13T05:09:33.697Z,935.81
2018-09-13T05:10:33.709Z,935.77
2018-09-13T05:11:33.974Z,935.78
2018-09-13T05:12:33.724Z,935.78
2018-09-13T05:13:33.749Z,935.69
2018-09-13T05:14:33.750Z,935.73
2018-09-13T05:15:33.769Z,935.74
2018-09-13T05:16:33.886Z,935.71
2018-09-13T05:17:33.792Z,935.71
2018-09-13T05:18:33.799Z,935.67
2018-09-13T05:19:33.807Z,935.68
2018-09-13T05:20:33.821Z,935.72
2018-09-13T05:21:33.949Z,935.68
2018-09-13T05:22:33.860Z,935.70
2018-09-13T05:23:33.869Z,935.72
2018-09-13T05:24:33.880Z,935.72
2018-09-13T05:25:34.088Z,935.78
2018-09-13T05:26:33.999Z,935.72
2018-09-13T05:27:33.915Z,935.76
2018-09-13T05:28:33.927Z,935.74
2018-09-13T05:29:33.941Z,935.69
2018-09-13T05:30:33.964Z,935.70
2018-09-13T05:31:34.270Z,935.67
2018-09-13T05:32:33.968Z,935.72
2018-09-13T05:33:33.974Z,935.65
2018-09-13T05:34:33.985Z,935.62
2018-09-13T05:35:34.010Z,935.60
2018-09-13T05:36:34.125Z,935.63
2018-09-13T05:37:34.038Z,935.58
2018-09-13T05:38:34.250Z,935.57
2018-09-13T05:39:34.059Z,935.60
2018-09-13T05:40:34.062Z,935.58
2018-09-13T05:41:34.236Z,935.60
2018-09-13T05:42:34.085Z,935.59
2018-09-13T05:43:34.117Z,935.58
2018-09-13T05:44:34.143Z,935.59
2018-09-13T05:45:34.129Z,935.55
2018-09-13T05:46:34.236Z,935.54
2018-09-13T05:47:34.154Z,935.51
2018-09-13T05:48:34.169Z,935.49
2018-09-13T05:49:34.185Z,935.45
2018-09-13T05:50:34.190Z,935.45
2018-09-13T05:51:34.364Z,935.43
2018-09-13T05:52:34.208Z,935.38
2018-09-13T05:53:34.225Z,935.46
2018-09-13T05:54:34.239Z,935.41
2018-09-13T05:55:34.250Z,935.43
2018-09-13T05:56:34.367Z,935.42
2018-09-13T05:57:34.267Z,935.38
2018-09-13T05:58:34.281Z,935.38
2018-09-13T05:59:34.307Z,935.36
2018-09-13T06:00:34.317Z,935.35
2018-09-13T06:01:34.571Z,935.36
2018-09-13T06:02:34.340Z,935.32
2018-09-13T06:03:34.353Z,935.28
2018-09-13T06:04:34.355Z,935.24
2018-09-13T06:05:34.360Z,935.24
2018-09-13T06:06:34.379Z,935.25
2018-09-13T06:07:34.496Z,935.22
2018-09-13T06:08:34.412Z,935.17
2018-09-13T06:09:34.423Z,935.16
2018-09-13T06:10:34.446Z,935.15
2018-09-13T06:11:34.450Z,935.12
2018-09-13T06:12:34.950Z,935.15
2018-09-13T06:13:34.523Z,935.16
2018-09-13T06:14:34.474Z,935.12
2018-09-13T06:15:34.703Z,935.15
2018-09-13T06:16:34.498Z,935.13
2018-09-13T06:17:34.509Z,935.11
2018-09-13T06:18:34.678Z,935.19
2018-09-13T06:19:34.552Z,935.13
2018-09-13T06:20:34.558Z,935.16
2018-09-13T06:21:34.567Z,935.20
2018-09-13T06:22:34.589Z,935.15
2018-09-13T06:23:34.705Z,935.17
2018-09-13T06:24:34.599Z,935.18
2018-09-13T06:25:34.608Z,935.15
2018-09-13T06:26:34.622Z,935.13
2018-09-13T06:27:34.639Z,935.12
2018-09-13T06:28:34.796Z,935.11
2018-09-13T06:29:34.673Z,935.10
2018-09-13T06:30:34.669Z,935.15
2018-09-13T06:31:34.691Z,935.09
2018-09-13T06:32:34.708Z,935.08
2018-09-13T06:33:34.867Z,935.09
2018-09-13T06:34:34.728Z,935.11
2018-09-13T06:35:34.746Z,935.09
2018-09-13T06:36:34.756Z,935.07
2018-09-13T06:37:34.767Z,935.04
2018-09-13T06:38:35.029Z,935.04
2018-09-13T06:39:34.989Z,935.02
2018-09-13T06:40:34.796Z,935.03
2018-09-13T06:41:34.811Z,935.05
2018-09-13T06:42:34.910Z,935.02
2018-09-13T06:43:35.075Z,934.99
2018-09-13T06:44:34.836Z,935.01
2018-09-13T06:45:34.857Z,935.00
2018-09-13T06:46:34.863Z,934.99
2018-09-13T06:47:34.875Z,934.98
2018-09-13T06:48:35.027Z,935.00
2018-09-13T06:49:35.302Z,934.97
2018-09-13T06:50:34.928Z,934.98
2018-09-13T06:51:34.930Z,935.02
2018-09-13T06:52:34.937Z,934.94
2018-09-13T06:53:35.052Z,934.98
2018-09-13T06:54:34.976Z,934.97
2018-09-13T06:55:34.984Z,934.94
2018-09-13T06:56:34.989Z,934.99
2018-09-13T06:57:34.999Z,934.93
2018-09-13T06:58:35.164Z,934.96
2018-09-13T06:59:35.025Z,934.93
2018-09-13T07:00:35.043Z,934.90
2018-09-13T07:01:35.046Z,934.90
2018-09-13T07:02:35.151Z,934.88
2018-09-13T07:03:35.190Z,934.84
2018-09-13T07:04:35.098Z,934.89
2018-09-13T07:05:35.096Z,934.85
2018-09-13T07:06:35.111Z,934.88
2018-09-13T07:07:35.123Z,934.85
2018-09-13T07:08:35.337Z,934.84
2018-09-13T07:09:35.141Z,934.86
2018-09-13T07:10:35.163Z,934.89
2018-09-13T07:11:35.180Z,934.87
2018-09-13T07:12:35.381Z,934.87
2018-09-13T07:13:35.288Z,934.85
2018-09-13T07:14:35.214Z,934.87
2018-09-13T07:15:35.220Z,934.88
2018-09-13T07:16:35.231Z,934.87
2018-09-13T07:17:35.452Z,934.86
2018-09-13T07:18:35.414Z,934.89
2018-09-13T07:19:35.276Z,934.89
2018-09-13T07:20:35.274Z,934.89
2018-09-13T07:21:35.285Z,934.92
2018-09-13T07:22:35.315Z,934.96
2018-09-13T07:23:35.633Z,934.95
2018-09-13T07:24:35.329Z,934.92
2018-09-13T07:25:35.345Z,934.93
2018-09-13T07:26:35.350Z,934.95
2018-09-13T07:27:35.379Z,934.93
2018-09-13T07:28:35.386Z,934.92
2018-09-13T07:29:35.499Z,934.91
2018-09-13T07:30:35.402Z,934.91
2018-09-13T07:31:35.424Z,934.88
2018-09-13T07:32:35.424Z,934.86
2018-09-13T07:33:35.438Z,934.90
2018-09-13T07:34:35.705Z,934.90
2018-09-13T07:35:35.459Z,934.94
2018-09-13T07:36:35.506Z,934.89
2018-09-13T07:37:35.502Z,934.95
2018-09-13T07:38:35.515Z,934.96
2018-09-13T07:39:35.526Z,934.97
2018-09-13T07:40:35.634Z,935.02
2018-09-13T07:41:35.535Z,934.95
2018-09-13T07:42:35.717Z,934.95
2018-09-13T07:43:35.552Z,935.02
2018-09-13T07:44:35.580Z,934.97
2018-09-13T07:45:35.680Z,934.97
2018-09-13T07:46:35.597Z,934.96
2018-09-13T07:47:35.617Z,934.98
2018-09-13T07:48:35.636Z,934.94
2018-09-13T07:49:35.718Z,934.97
2018-09-13T07:50:35.793Z,934.95
2018-09-13T07:51:35.659Z,934.90
2018-09-13T07:52:35.675Z,934.92
2018-09-13T07:53:35.686Z,934.92
2018-09-13T07:54:35.900Z,934.92
2018-09-13T07:55:35.838Z,934.88
2018-09-13T07:56:35.730Z,934.86
2018-09-13T07:57:35.743Z,934.95
2018-09-13T07:58:35.752Z,934.97
2018-09-13T07:59:35.761Z,934.99
2018-09-13T08:00:36.078Z,934.98
2018-09-13T08:01:35.794Z,934.95
2018-09-13T08:02:35.805Z,934.94
2018-09-13T08:03:35.817Z,934.94
2018-09-13T08:04:35.816Z,934.93
2018-09-13T08:05:35.927Z,934.91
2018-09-13T08:06:35.841Z,934.94
2018-09-13T08:07:35.864Z,934.92
2018-09-13T08:08:35.869Z,934.95
2018-09-13T08:09:35.868Z,934.92
2018-09-13T08:10:35.998Z,934.93
2018-09-13T08:11:35.909Z,934.94
2018-09-13T08:12:35.923Z,934.95
2018-09-13T08:13:35.930Z,935.00
2018-09-13T08:14:35.957Z,934.98
2018-09-13T08:15:36.065Z,935.01
2018-09-13T08:16:36.372Z,935.05
2018-09-13T08:17:35.969Z,935.06
2018-09-13T08:18:35.987Z,935.08
2018-09-13T08:19:35.994Z,935.06
2018-09-13T08:20:36.107Z,935.09
2018-09-13T08:21:36.090Z,935.13
2018-09-13T08:22:36.031Z,935.09
2018-09-13T08:23:36.260Z,935.11
2018-09-13T08:24:36.063Z,935.09
2018-09-13T08:25:36.168Z,935.15
2018-09-13T08:26:36.097Z,935.13
2018-09-13T08:27:36.094Z,935.15
2018-09-13T08:28:36.116Z,935.17
2018-09-13T08:29:36.116Z,935.15
2018-09-13T08:30:36.239Z,935.18
2018-09-13T08:31:36.152Z,935.18
2018-09-13T08:32:36.164Z,935.15
2018-09-13T08:33:36.176Z,935.17
2018-09-13T08:34:36.220Z,935.15
2018-09-13T08:35:36.301Z,935.12
2018-09-13T08:36:36.216Z,935.13
2018-09-13T08:37:36.208Z,935.17
2018-09-13T08:38:36.236Z,935.16
2018-09-13T08:39:36.248Z,935.18
2018-09-13T08:40:36.557Z,935.18
2018-09-13T08:41:36.273Z,935.23
2018-09-13T08:42:36.276Z,935.18
2018-09-13T08:43:36.288Z,935.20
2018-09-13T08:44:36.318Z,935.21
2018-09-13T08:45:36.422Z,935.20
2018-09-13T08:46:36.339Z,935.25
2018-09-13T08:47:36.383Z,935.28
2018-09-13T08:48:36.361Z,935.25
2018-09-13T08:49:36.359Z,935.25
2018-09-13T08:50:36.637Z,935.27
2018-09-13T08:51:36.397Z,935.26
2018-09-13T08:52:36.403Z,935.29
2018-09-13T08:53:36.416Z,935.29
2018-09-13T08:54:36.435Z,935.35
2018-09-13T08:55:36.438Z,935.38
2018-09-13T08:56:36.555Z,935.39
2018-09-13T08:57:36.464Z,935.41
2018-09-13T08:58:36.484Z,935.38
2018-09-13T08:59:36.485Z,935.38
2018-09-13T09:00:36.541Z,935.42
2018-09-13T09:01:36.609Z,935.38
2018-09-13T09:02:36.520Z,935.38
2018-09-13T09:03:36.535Z,935.44
2018-09-13T09:04:36.558Z,935.39
2018-09-13T09:05:36.559Z,935.40
2018-09-13T09:06:36.754Z,935.42
2018-09-13T09:07:36.584Z,935.41
2018-09-13T09:08:36.607Z,935.45
2018-09-13T09:09:36.605Z,935.46
2018-09-13T09:10:36.621Z,935.45
2018-09-13T09:11:36.780Z,935.43
2018-09-13T09:12:36.652Z,935.46
2018-09-13T09:13:36.675Z,935.44
2018-09-13T09:14:36.685Z,935.43
2018-09-13T09:15:36.690Z,935.46
2018-09-13T09:16:36.852Z,935.48
2018-09-13T09:17:36.715Z,935.49
2018-09-13T09:18:36.758Z,935.50
2018-09-13T09:19:36.728Z,935.49
2018-09-13T09:20:36.737Z,935.47
2018-09-13T09:21:36.855Z,935.46
2018-09-13T09:22:36.769Z,935.47
2018-09-13T09:23:36.779Z,935.49
2018-09-13T09:24:36.791Z,935.50
2018-09-13T09:25:36.819Z,935.49
2018-09-13T09:26:36.914Z,935.52
2018-09-13T09:27:36.845Z,935.51
2018-09-13T09:28:36.839Z,935.46
2018-09-13T09:29:36.861Z,935.47
2018-09-13T09:30:36.863Z,935.51
2018-09-13T09:31:37.137Z,935.43
2018-09-13T09:32:36.890Z,935.47
2018-09-13T09:33:36.901Z,935.51
2018-09-13T09:34:36.978Z,935.51
2018-09-13T09:35:37.129Z,935.49
2018-09-13T09:36:37.045Z,935.51
2018-09-13T09:37:36.960Z,935.46
2018-09-13T09:38:36.973Z,935.47
2018-09-13T09:39:36.971Z,935.49
2018-09-13T09:40:37.040Z,935.50
2018-09-13T09:41:37.110Z,935.52
2018-09-13T09:42:37.018Z,935.50
2018-09-13T09:43:37.027Z,935.51
2018-09-13T09:44:37.035Z,935.58
2018-09-13T09:45:37.046Z,935.55
2018-09-13T09:46:37.313Z,935.57
2018-09-13T09:47:37.088Z,935.63
2018-09-13T09:48:37.109Z,935.62
2018-09-13T09:49:37.097Z,935.61
2018-09-13T09:50:37.191Z,935.63
2018-09-13T09:51:37.473Z,935.63
2018-09-13T09:52:37.137Z,935.65
2018-09-13T09:53:37.433Z,935.63
2018-09-13T09:54:37.162Z,935.69
2018-09-13T09:55:37.181Z,935.71
2018-09-13T09:56:37.288Z,935.67
2018-09-13T09:57:37.213Z,935.71
2018-09-13T09:58:37.426Z,935.69
2018-09-13T09:59:37.221Z,935.72
2018-09-13T10:00:37.236Z,935.71
2018-09-13T10:01:37.350Z,935.70
2018-09-13T10:02:37.260Z,935.80
2018-09-13T10:03:37.288Z,935.77
2018-09-13T10:04:37.311Z,935.76
2018-09-13T10:05:37.297Z,935.77
2018-09-13T10:06:37.480Z,935.80
2018-09-13T10:07:37.323Z,935.82
2018-09-13T10:08:37.345Z,935.83
2018-09-13T10:09:37.385Z,935.85
2018-09-13T10:10:37.361Z,935.86
2018-09-13T10:11:37.471Z,935.87
2018-09-13T10:12:37.390Z,935.90
2018-09-13T10:13:37.400Z,935.90
2018-09-13T10:14:37.818Z,935.87
2018-09-13T10:15:37.419Z,935.90
2018-09-13T10:16:38.149Z,935.93
2018-09-13T10:17:37.456Z,935.94
2018-09-13T10:18:37.460Z,936.00
2018-09-13T10:19:37.471Z,936.01
2018-09-13T10:20:37.505Z,935.98
2018-09-13T10:21:37.759Z,936.01
2018-09-13T10:22:37.515Z,936.00
2018-09-13T10:23:37.545Z,936.04
2018-09-13T10:24:37.549Z,936.06
2018-09-13T10:25:37.553Z,936.07
2018-09-13T10:26:37.664Z,936.07
2018-09-13T10:27:37.585Z,936.14
2018-09-13T10:28:37.631Z,936.10
2018-09-13T10:29:37.855Z,936.09
2018-09-13T10:30:37.827Z,936.10
2018-09-13T10:31:37.882Z,936.07
2018-09-13T10:32:37.642Z,936.08
2018-09-13T10:33:37.899Z,936.12
2018-09-13T10:34:37.679Z,936.05
2018-09-13T10:35:37.685Z,936.07
2018-09-13T10:36:37.800Z,936.10
2018-09-13T10:37:37.701Z,936.05
2018-09-13T10:38:37.929Z,936.03
2018-09-13T10:39:37.734Z,936.05
2018-09-13T10:40:37.817Z,936.04
2018-09-13T10:41:37.861Z,936.00
2018-09-13T10:42:37.777Z,936.03
2018-09-13T10:43:37.793Z,936.01
2018-09-13T10:44:37.801Z,936.03
2018-09-13T10:45:38.212Z,936.03
2018-09-13T10:46:37.931Z,936.02
2018-09-13T10:47:42.163Z,936.03
2018-09-13T10:48:38.262Z,936.02
2018-09-13T10:49:37.861Z,936.03
2018-09-13T10:50:37.870Z,936.04
2018-09-13T10:51:37.991Z,936.01
2018-09-13T10:52:38.183Z,936.03
2018-09-13T10:53:37.920Z,936.02
2018-09-13T10:54:37.938Z,936.01
2018-09-13T10:55:38.025Z,935.98
2018-09-13T10:56:38.206Z,936.00
2018-09-13T10:57:37.973Z,936.03
2018-09-13T10:58:38.064Z,936.02
2018-09-13T10:59:38.005Z,936.04
2018-09-13T11:00:38.411Z,936.04
2018-09-13T11:01:38.128Z,936.01
2018-09-13T11:02:38.040Z,936.05
2018-09-13T11:03:38.120Z,936.03
2018-09-13T11:04:38.060Z,936.04
2018-09-13T11:05:38.309Z,936.04
2018-09-13T11:06:38.341Z,936.03
2018-09-13T11:07:38.103Z,936.02
2018-09-13T11:08:38.309Z,936.04
2018-09-13T11:09:38.119Z,936.04
2018-09-13T11:10:38.297Z,936.03
2018-09-13T11:11:38.395Z,936.09
2018-09-13T11:12:38.159Z,936.04
2018-09-13T11:13:38.213Z,936.12
2018-09-13T11:14:38.197Z,936.13
2018-09-13T11:15:38.403Z,936.17
2018-09-13T11:16:38.313Z,936.21
2018-09-13T11:17:38.227Z,936.23
2018-09-13T11:18:38.246Z,936.30
2018-09-13T11:19:38.264Z,936.26
2018-09-13T11:20:38.271Z,936.24
2018-09-13T11:21:38.392Z,936.27
2018-09-13T11:22:38.290Z,936.26
2018-09-13T11:23:38.311Z,936.29
2018-09-13T11:24:38.347Z,936.30
2018-09-13T11:25:38.334Z,936.33
2018-09-13T11:26:38.449Z,936.34
2018-09-13T11:27:38.355Z,936.29
2018-09-13T11:28:38.579Z,936.36
2018-09-13T11:29:38.381Z,936.44
2018-09-13T11:30:39.073Z,936.45
2018-09-13T11:31:38.521Z,936.43
2018-09-13T11:32:38.417Z,936.47
2018-09-13T11:33:38.449Z,936.49
2018-09-13T11:34:38.461Z,936.50
2018-09-13T11:35:38.471Z,936.49
2018-09-13T11:36:38.578Z,936.52
2018-09-13T11:37:38.501Z,936.48
2018-09-13T11:38:38.511Z,936.47
2018-09-13T11:39:38.749Z,936.41
2018-09-13T11:40:38.718Z,936.39
2018-09-13T11:41:38.646Z,936.41
2018-09-13T11:42:38.553Z,936.41
2018-09-13T11:43:38.966Z,936.39
2018-09-13T11:44:38.591Z,936.38
2018-09-13T11:45:38.602Z,936.37
2018-09-13T11:46:38.723Z,936.33
2018-09-13T11:47:38.625Z,936.38
2018-09-13T11:48:38.664Z,936.38
2018-09-13T11:49:38.642Z,936.41
2018-09-13T11:50:38.660Z,936.40
2018-09-13T11:51:38.940Z,936.39
2018-09-13T11:52:39.090Z,936.38
2018-09-13T11:53:38.719Z,936.42
2018-09-13T11:54:38.730Z,936.41
2018-09-13T11:55:38.744Z,936.38
2018-09-13T11:56:38.842Z,936.39
2018-09-13T11:57:38.767Z,936.46
2018-09-13T11:58:38.798Z,936.40
2018-09-13T11:59:38.807Z,936.42
2018-09-13T12:00:38.807Z,936.46
2018-09-13T12:01:38.979Z,936.44
2018-09-13T12:02:38.843Z,936.44
2018-09-13T12:03:38.900Z,936.42
2018-09-13T12:04:38.856Z,936.44
2018-09-13T12:05:38.879Z,936.43
2018-09-13T12:06:38.991Z,936.42
2018-09-13T12:07:38.906Z,936.43
2018-09-13T12:08:38.916Z,936.44
2018-09-13T12:09:39.040Z,936.46
2018-09-13T12:10:38.945Z,936.50
2018-09-13T12:11:39.060Z,936.50
2018-09-13T12:12:38.991Z,936.51
2018-09-13T12:13:39.005Z,936.49
2018-09-13T12:14:39.018Z,936.54
2018-09-13T12:15:39.030Z,936.51
2018-09-13T12:16:39.131Z,936.56
2018-09-13T12:17:39.061Z,936.51
2018-09-13T12:18:39.057Z,936.56
2018-09-13T12:19:39.077Z,936.50
2018-09-13T12:20:39.101Z,936.55
2018-09-13T12:21:39.369Z,936.55
2018-09-13T12:22:39.226Z,936.55
2018-09-13T12:23:39.144Z,936.50
2018-09-13T12:24:39.167Z,936.48
2018-09-13T12:25:39.177Z,936.48
2018-09-13T12:26:39.279Z,936.46
2018-09-13T12:27:39.294Z,936.48
2018-09-13T12:28:39.224Z,936.52
2018-09-13T12:29:39.225Z,936.48
2018-09-13T12:30:39.251Z,936.46
2018-09-13T12:31:39.424Z,936.48
2018-09-13T12:32:39.296Z,936.46
2018-09-13T12:33:39.351Z,936.44